sensor_id;sensor_type;location;lat;lon;timestamp;pressure;altitude;pressure_sealevel;temperature;humidity
59789;BME280;47353;51.614;5.530;2023-12-14T00:01:31;100741.19;;;6.74;100.00
59789;BME280;47353;51.614;5.530;2023-12-14T00:03:56;100750.38;;;6.79;100.00
59789;BME280;47353;51.614;5.530;2023-12-14T00:06:22;100752.28;;;6.79;100.00
59789;BME280;47353;51.614;5.530;2023-12-14T00:08:47;100762.38;;;6.73;100.00
59789;BME280;47353;51.614;5.530;2023-12-14T00:11:13;100768.56;;;6.64;100.00
59789;BME280;47353;51.614;5.530;2023-12-14T00:13:38;100773.81;;;6.65;100.00
59789;BME280;47353;51.614;5.530;2023-12-14T00:16:04;100781.56;;;6.68;100.00
59789;BME280;47353;51.614;5.530;2023-12-14T00:18:30;100791.47;;;6.69;100.00
59789;BME280;47353;51.614;5.530;2023-12-14T00:20:55;100791.22;;;6.71;100.00
59789;BME280;47353;51.614;5.530;2023-12-14T00:23:22;100796.56;;;6.61;100.00
59789;BME280;47353;51.614;5.530;2023-12-14T00:25:47;100799.22;;;6.72;100.00
59789;BME280;47353;51.614;5.530;2023-12-14T00:28:12;100810.97;;;6.68;100.00
59789;BME280;47353;51.614;5.530;2023-12-14T00:30:38;100816.09;;;6.59;100.00
59789;BME280;47353;51.614;5.530;2023-12-14T00:33:04;100820.41;;;6.55;100.00
59789;BME280;47353;51.614;5.530;2023-12-14T00:35:30;100826.50;;;6.57;100.00
59789;BME280;47353;51.614;5.530;2023-12-14T00:37:55;100841.75;;;6.48;100.00
59789;BME280;47353;51.614;5.530;2023-12-14T00:40:20;100845.41;;;6.54;100.00
59789;BME280;47353;51.614;5.530;2023-12-14T00:42:46;100847.25;;;6.48;100.00
59789;BME280;47353;51.614;5.530;2023-12-14T00:45:12;100851.75;;;6.54;100.00
59789;BME280;47353;51.614;5.530;2023-12-14T00:47:37;100863.16;;;6.46;100.00
59789;BME280;47353;51.614;5.530;2023-12-14T00:50:03;100857.84;;;6.40;100.00
59789;BME280;47353;51.614;5.530;2023-12-14T00:52:28;100870.16;;;6.37;100.00
59789;BME280;47353;51.614;5.530;2023-12-14T00:54:54;100872.56;;;6.34;100.00
59789;BME280;47353;51.614;5.530;2023-12-14T00:57:19;100873.66;;;6.33;100.00
59789;BME280;47353;51.614;5.530;2023-12-14T00:59:44;100876.91;;;6.46;100.00
59789;BME280;47353;51.614;5.530;2023-12-14T01:02:10;100880.91;;;6.39;100.00
59789;BME280;47353;51.614;5.530;2023-12-14T01:04:35;100883.91;;;6.70;100.00
59789;BME280;47353;51.614;5.530;2023-12-14T01:07:01;100885.03;;;6.25;100.00
59789;BME280;47353;51.614;5.530;2023-12-14T01:09:26;100895.09;;;6.47;100.00
59789;BME280;47353;51.614;5.530;2023-12-14T01:11:51;100891.63;;;6.24;100.00
59789;BME280;47353;51.614;5.530;2023-12-14T01:14:17;100895.47;;;6.39;100.00
59789;BME280;47353;51.614;5.530;2023-12-14T01:16:42;100892.53;;;6.29;100.00
59789;BME280;47353;51.614;5.530;2023-12-14T01:19:07;100892.66;;;6.06;100.00
59789;BME280;47353;51.614;5.530;2023-12-14T01:21:33;100898.50;;;6.10;100.00
59789;BME280;47353;51.614;5.530;2023-12-14T01:23:59;100914.41;;;6.08;100.00
59789;BME280;47353;51.614;5.530;2023-12-14T01:26:26;100919.50;;;6.16;100.00
59789;BME280;47353;51.614;5.530;2023-12-14T01:28:51;100924.91;;;6.11;100.00
59789;BME280;47353;51.614;5.530;2023-12-14T01:31:17;100933.00;;;6.17;100.00
59789;BME280;47353;51.614;5.530;2023-12-14T01:33:42;100936.38;;;6.08;100.00
59789;BME280;47353;51.614;5.530;2023-12-14T01:36:08;100940.44;;;6.17;100.00
59789;BME280;47353;51.614;5.530;2023-12-14T01:38:33;100939.53;;;6.00;100.00
59789;BME280;47353;51.614;5.530;2023-12-14T01:40:59;100944.72;;;6.13;100.00
59789;BME280;47353;51.614;5.530;2023-12-14T01:43:24;100946.44;;;6.02;100.00
59789;BME280;47353;51.614;5.530;2023-12-14T01:45:50;100948.34;;;6.02;100.00
59789;BME280;47353;51.614;5.530;2023-12-14T01:48:15;100960.06;;;5.97;100.00
59789;BME280;47353;51.614;5.530;2023-12-14T01:50:41;100956.41;;;5.92;100.00
59789;BME280;47353;51.614;5.530;2023-12-14T01:53:06;100966.19;;;5.88;100.00
59789;BME280;47353;51.614;5.530;2023-12-14T01:55:32;100979.78;;;5.94;100.00
59789;BME280;47353;51.614;5.530;2023-12-14T01:57:57;100978.50;;;5.74;100.00
59789;BME280;47353;51.614;5.530;2023-12-14T02:00:46;100982.91;;;5.86;100.00
59789;BME280;47353;51.614;5.530;2023-12-14T02:03:15;100993.31;;;5.73;100.00
59789;BME280;47353;51.614;5.530;2023-12-14T02:05:40;100998.69;;;5.79;100.00
59789;BME280;47353;51.614;5.530;2023-12-14T02:08:05;100996.53;;;5.70;100.00
59789;BME280;47353;51.614;5.530;2023-12-14T02:10:31;101003.34;;;5.67;100.00
59789;BME280;47353;51.614;5.530;2023-12-14T02:12:56;101004.53;;;5.71;100.00
59789;BME280;47353;51.614;5.530;2023-12-14T02:15:21;101003.59;;;5.66;100.00
59789;BME280;47353;51.614;5.530;2023-12-14T02:17:47;101006.91;;;5.68;100.00
59789;BME280;47353;51.614;5.530;2023-12-14T02:20:12;101015.03;;;5.74;100.00
59789;BME280;47353;51.614;5.530;2023-12-14T02:22:51;101026.75;;;5.70;100.00
59789;BME280;47353;51.614;5.530;2023-12-14T02:25:17;101038.47;;;5.77;100.00
59789;BME280;47353;51.614;5.530;2023-12-14T02:27:43;101038.56;;;5.70;100.00
59789;BME280;47353;51.614;5.530;2023-12-14T02:30:09;101040.25;;;5.71;100.00
59789;BME280;47353;51.614;5.530;2023-12-14T02:32:35;101048.47;;;5.71;100.00
59789;BME280;47353;51.614;5.530;2023-12-14T02:35:00;101054.69;;;5.67;100.00
59789;BME280;47353;51.614;5.530;2023-12-14T02:37:26;101053.88;;;5.55;100.00
59789;BME280;47353;51.614;5.530;2023-12-14T02:39:51;101049.44;;;5.54;100.00
59789;BME280;47353;51.614;5.530;2023-12-14T02:42:16;101057.81;;;5.47;100.00
59789;BME280;47353;51.614;5.530;2023-12-14T02:44:42;101064.84;;;5.55;100.00
59789;BME280;47353;51.614;5.530;2023-12-14T02:47:07;101072.09;;;5.49;100.00
59789;BME280;47353;51.614;5.530;2023-12-14T02:49:32;101071.75;;;5.57;100.00
59789;BME280;47353;51.614;5.530;2023-12-14T02:51:58;101075.09;;;5.59;100.00
59789;BME280;47353;51.614;5.530;2023-12-14T02:54:24;101080.34;;;5.49;100.00
59789;BME280;47353;51.614;5.530;2023-12-14T02:56:49;101085.59;;;5.51;100.00
59789;BME280;47353;51.614;5.530;2023-12-14T02:59:14;101088.72;;;5.66;100.00
59789;BME280;47353;51.614;5.530;2023-12-14T03:01:40;101089.06;;;5.46;100.00
59789;BME280;47353;51.614;5.530;2023-12-14T03:04:06;101093.00;;;5.50;100.00
59789;BME280;47353;51.614;5.530;2023-12-14T03:06:32;101088.34;;;5.51;100.00
59789;BME280;47353;51.614;5.530;2023-12-14T03:08:57;101102.44;;;5.54;100.00
59789;BME280;47353;51.614;5.530;2023-12-14T03:11:23;101111.38;;;5.50;100.00
59789;BME280;47353;51.614;5.530;2023-12-14T03:13:48;101104.94;;;5.56;100.00
59789;BME280;47353;51.614;5.530;2023-12-14T03:16:14;101110.69;;;5.43;100.00
59789;BME280;47353;51.614;5.530;2023-12-14T03:18:39;101113.41;;;5.43;100.00
59789;BME280;47353;51.614;5.530;2023-12-14T03:21:05;101110.91;;;5.41;100.00
59789;BME280;47353;51.614;5.530;2023-12-14T03:23:30;101121.53;;;5.38;100.00
59789;BME280;47353;51.614;5.530;2023-12-14T03:25:55;101122.50;;;5.55;100.00
59789;BME280;47353;51.614;5.530;2023-12-14T03:28:21;101122.38;;;5.38;100.00
59789;BME280;47353;51.614;5.530;2023-12-14T03:30:46;101119.72;;;5.43;100.00
59789;BME280;47353;51.614;5.530;2023-12-14T03:33:11;101115.06;;;5.32;100.00
59789;BME280;47353;51.614;5.530;2023-12-14T03:35:37;101124.41;;;5.54;100.00
59789;BME280;47353;51.614;5.530;2023-12-14T03:38:03;101121.53;;;5.38;100.00
59789;BME280;47353;51.614;5.530;2023-12-14T03:40:28;101121.66;;;5.43;100.00
59789;BME280;47353;51.614;5.530;2023-12-14T03:42:53;101126.03;;;5.32;100.00
59789;BME280;47353;51.614;5.530;2023-12-14T03:45:19;101130.25;;;5.58;100.00
59789;BME280;47353;51.614;5.530;2023-12-14T03:47:44;101134.88;;;5.34;100.00
59789;BME280;47353;51.614;5.530;2023-12-14T03:50:11;101143.94;;;5.35;100.00
59789;BME280;47353;51.614;5.530;2023-12-14T03:52:37;101148.22;;;5.31;100.00
59789;BME280;47353;51.614;5.530;2023-12-14T03:55:02;101149.06;;;5.31;100.00
59789;BME280;47353;51.614;5.530;2023-12-14T03:57:28;101159.81;;;5.33;100.00
59789;BME280;47353;51.614;5.530;2023-12-14T03:59:53;101161.84;;;5.37;100.00
59789;BME280;47353;51.614;5.530;2023-12-14T04:02:18;101160.88;;;5.32;100.00
59789;BME280;47353;51.614;5.530;2023-12-14T04:04:44;101162.09;;;5.36;100.00
59789;BME280;47353;51.614;5.530;2023-12-14T04:07:10;101161.59;;;5.39;100.00
59789;BME280;47353;51.614;5.530;2023-12-14T04:09:35;101155.63;;;5.30;100.00
59789;BME280;47353;51.614;5.530;2023-12-14T04:12:01;101171.25;;;5.30;100.00
59789;BME280;47353;51.614;5.530;2023-12-14T04:14:26;101166.25;;;5.27;100.00
59789;BME280;47353;51.614;5.530;2023-12-14T04:16:51;101161.47;;;5.22;100.00
59789;BME280;47353;51.614;5.530;2023-12-14T04:19:17;101158.72;;;5.22;100.00
59789;BME280;47353;51.614;5.530;2023-12-14T04:21:42;101152.38;;;5.22;100.00
59789;BME280;47353;51.614;5.530;2023-12-14T04:24:07;101169.44;;;5.24;100.00
59789;BME280;47353;51.614;5.530;2023-12-14T04:26:34;101172.56;;;5.27;100.00
59789;BME280;47353;51.614;5.530;2023-12-14T04:29:00;101177.69;;;5.24;100.00
59789;BME280;47353;51.614;5.530;2023-12-14T04:31:25;101180.44;;;5.24;100.00
59789;BME280;47353;51.614;5.530;2023-12-14T04:33:50;101190.31;;;5.25;100.00
59789;BME280;47353;51.614;5.530;2023-12-14T04:36:16;101203.47;;;5.23;100.00
59789;BME280;47353;51.614;5.530;2023-12-14T04:38:41;101211.69;;;5.23;100.00
59789;BME280;47353;51.614;5.530;2023-12-14T04:41:07;101222.28;;;5.19;100.00
59789;BME280;47353;51.614;5.530;2023-12-14T04:43:33;101225.50;;;5.16;100.00
59789;BME280;47353;51.614;5.530;2023-12-14T04:45:58;101233.66;;;5.23;100.00
59789;BME280;47353;51.614;5.530;2023-12-14T04:48:24;101234.47;;;5.23;100.00
59789;BME280;47353;51.614;5.530;2023-12-14T04:50:49;101239.88;;;5.30;100.00
59789;BME280;47353;51.614;5.530;2023-12-14T04:53:14;101243.41;;;5.18;100.00
59789;BME280;47353;51.614;5.530;2023-12-14T04:55:40;101244.84;;;5.21;100.00
59789;BME280;47353;51.614;5.530;2023-12-14T04:58:05;101244.00;;;5.21;100.00
59789;BME280;47353;51.614;5.530;2023-12-14T05:00:30;101254.44;;;5.30;100.00
59789;BME280;47353;51.614;5.530;2023-12-14T05:02:56;101251.41;;;5.20;100.00
59789;BME280;47353;51.614;5.530;2023-12-14T05:05:21;101260.56;;;5.14;100.00
59789;BME280;47353;51.614;5.530;2023-12-14T05:07:47;101270.09;;;5.11;100.00
59789;BME280;47353;51.614;5.530;2023-12-14T05:10:12;101268.47;;;5.22;100.00
59789;BME280;47353;51.614;5.530;2023-12-14T05:12:38;101274.19;;;5.21;100.00
59789;BME280;47353;51.614;5.530;2023-12-14T05:15:05;101278.31;;;5.11;100.00
59789;BME280;47353;51.614;5.530;2023-12-14T05:17:30;101286.72;;;5.17;100.00
59789;BME280;47353;51.614;5.530;2023-12-14T05:19:56;101291.75;;;5.20;100.00
59789;BME280;47353;51.614;5.530;2023-12-14T05:22:21;101292.31;;;5.22;100.00
59789;BME280;47353;51.614;5.530;2023-12-14T05:24:47;101299.50;;;5.23;100.00
59789;BME280;47353;51.614;5.530;2023-12-14T05:27:13;101307.75;;;5.23;100.00
59789;BME280;47353;51.614;5.530;2023-12-14T05:29:38;101310.03;;;5.26;100.00
59789;BME280;47353;51.614;5.530;2023-12-14T05:32:04;101318.84;;;5.28;100.00
59789;BME280;47353;51.614;5.530;2023-12-14T05:34:29;101326.25;;;5.27;100.00
59789;BME280;47353;51.614;5.530;2023-12-14T05:36:54;101323.28;;;5.29;100.00
59789;BME280;47353;51.614;5.530;2023-12-14T05:39:20;101327.31;;;5.26;100.00
59789;BME280;47353;51.614;5.530;2023-12-14T05:41:45;101332.91;;;5.20;100.00
59789;BME280;47353;51.614;5.530;2023-12-14T05:44:11;101342.63;;;5.34;100.00
59789;BME280;47353;51.614;5.530;2023-12-14T05:46:36;101355.97;;;5.30;100.00
59789;BME280;47353;51.614;5.530;2023-12-14T05:49:01;101356.69;;;5.26;100.00
59789;BME280;47353;51.614;5.530;2023-12-14T05:51:31;101368.78;;;5.36;100.00
59789;BME280;47353;51.614;5.530;2023-12-14T05:53:57;101376.25;;;5.29;100.00
59789;BME280;47353;51.614;5.530;2023-12-14T05:56:23;101380.28;;;5.27;100.00
59789;BME280;47353;51.614;5.530;2023-12-14T05:58:48;101389.19;;;5.40;100.00
59789;BME280;47353;51.614;5.530;2023-12-14T06:01:17;101393.72;;;5.35;100.00
59789;BME280;47353;51.614;5.530;2023-12-14T06:03:43;101399.38;;;5.40;100.00
59789;BME280;47353;51.614;5.530;2023-12-14T06:06:08;101392.19;;;5.39;100.00
59789;BME280;47353;51.614;5.530;2023-12-14T06:08:33;101399.97;;;5.24;100.00
59789;BME280;47353;51.614;5.530;2023-12-14T06:10:59;101401.41;;;5.44;100.00
59789;BME280;47353;51.614;5.530;2023-12-14T06:13:24;101401.94;;;5.35;100.00
59789;BME280;47353;51.614;5.530;2023-12-14T06:15:49;101405.38;;;5.30;100.00
59789;BME280;47353;51.614;5.530;2023-12-14T06:18:15;101405.75;;;5.34;100.00
59789;BME280;47353;51.614;5.530;2023-12-14T06:20:40;101409.34;;;5.34;100.00
59789;BME280;47353;51.614;5.530;2023-12-14T06:23:06;101408.19;;;5.24;100.00
59789;BME280;47353;51.614;5.530;2023-12-14T06:25:31;101416.66;;;5.40;100.00
59789;BME280;47353;51.614;5.530;2023-12-14T06:27:56;101416.88;;;5.39;100.00
59789;BME280;47353;51.614;5.530;2023-12-14T06:30:22;101424.38;;;5.32;100.00
59789;BME280;47353;51.614;5.530;2023-12-14T06:32:47;101428.16;;;5.31;100.00
59789;BME280;47353;51.614;5.530;2023-12-14T06:35:13;101438.84;;;5.39;100.00
59789;BME280;47353;51.614;5.530;2023-12-14T06:37:38;101440.38;;;5.35;100.00
59789;BME280;47353;51.614;5.530;2023-12-14T06:40:04;101447.38;;;5.31;100.00
59789;BME280;47353;51.614;5.530;2023-12-14T06:42:29;101458.00;;;5.45;100.00
59789;BME280;47353;51.614;5.530;2023-12-14T06:44:56;101456.47;;;5.31;100.00
59789;BME280;47353;51.614;5.530;2023-12-14T06:47:21;101458.56;;;5.29;100.00
59789;BME280;47353;51.614;5.530;2023-12-14T06:49:46;101452.09;;;5.24;100.00
59789;BME280;47353;51.614;5.530;2023-12-14T06:52:12;101447.25;;;5.26;100.00
59789;BME280;47353;51.614;5.530;2023-12-14T06:54:37;101458.56;;;5.29;100.00
59789;BME280;47353;51.614;5.530;2023-12-14T06:57:03;101458.69;;;5.23;100.00
59789;BME280;47353;51.614;5.530;2023-12-14T06:59:28;101467.59;;;5.18;100.00
59789;BME280;47353;51.614;5.530;2023-12-14T07:01:53;101475.81;;;5.18;100.00
59789;BME280;47353;51.614;5.530;2023-12-14T07:04:19;101480.75;;;5.28;100.00
59789;BME280;47353;51.614;5.530;2023-12-14T07:06:50;101477.25;;;5.21;100.00
59789;BME280;47353;51.614;5.530;2023-12-14T07:09:16;101489.09;;;5.21;100.00
59789;BME280;47353;51.614;5.530;2023-12-14T07:11:42;101485.72;;;5.19;100.00
59789;BME280;47353;51.614;5.530;2023-12-14T07:14:07;101490.75;;;5.22;100.00
59789;BME280;47353;51.614;5.530;2023-12-14T07:16:33;101505.56;;;5.21;100.00
59789;BME280;47353;51.614;5.530;2023-12-14T07:18:58;101497.22;;;5.28;100.00
59789;BME280;47353;51.614;5.530;2023-12-14T07:21:23;101509.28;;;5.27;100.00
59789;BME280;47353;51.614;5.530;2023-12-14T07:23:49;101514.00;;;5.20;100.00
59789;BME280;47353;51.614;5.530;2023-12-14T07:26:14;101523.41;;;5.30;100.00
59789;BME280;47353;51.614;5.530;2023-12-14T07:28:39;101530.53;;;5.13;100.00
59789;BME280;47353;51.614;5.530;2023-12-14T07:31:05;101541.50;;;5.13;100.00
59789;BME280;47353;51.614;5.530;2023-12-14T07:33:30;101542.34;;;5.13;100.00
59789;BME280;47353;51.614;5.530;2023-12-14T07:35:56;101547.31;;;5.23;100.00
59789;BME280;47353;51.614;5.530;2023-12-14T07:38:21;101551.47;;;5.07;100.00
59789;BME280;47353;51.614;5.530;2023-12-14T07:40:47;101552.56;;;5.25;100.00
59789;BME280;47353;51.614;5.530;2023-12-14T07:43:12;101551.19;;;5.15;100.00
59789;BME280;47353;51.614;5.530;2023-12-14T07:45:37;101551.22;;;5.09;100.00
59789;BME280;47353;51.614;5.530;2023-12-14T07:48:03;101566.66;;;5.10;100.00
59789;BME280;47353;51.614;5.530;2023-12-14T07:50:31;101562.66;;;5.06;100.00
59789;BME280;47353;51.614;5.530;2023-12-14T07:52:57;101569.63;;;5.08;100.00
59789;BME280;47353;51.614;5.530;2023-12-14T07:55:22;101578.06;;;5.07;100.00
59789;BME280;47353;51.614;5.530;2023-12-14T07:57:48;101581.41;;;5.09;100.00
59789;BME280;47353;51.614;5.530;2023-12-14T08:00:15;101578.88;;;5.07;100.00
59789;BME280;47353;51.614;5.530;2023-12-14T08:02:40;101588.38;;;5.11;100.00
59789;BME280;47353;51.614;5.530;2023-12-14T08:05:07;101590.91;;;5.13;100.00
59789;BME280;47353;51.614;5.530;2023-12-14T08:07:34;101588.69;;;5.22;100.00
59789;BME280;47353;51.614;5.530;2023-12-14T08:10:00;101598.06;;;5.14;100.00
59789;BME280;47353;51.614;5.530;2023-12-14T08:12:25;101598.84;;;4.96;100.00
59789;BME280;47353;51.614;5.530;2023-12-14T08:14:51;101607.06;;;4.96;100.00
59789;BME280;47353;51.614;5.530;2023-12-14T08:17:17;101606.41;;;5.01;100.00
59789;BME280;47353;51.614;5.530;2023-12-14T08:19:43;101606.91;;;5.16;100.00
59789;BME280;47353;51.614;5.530;2023-12-14T08:22:09;101611.03;;;5.00;100.00
59789;BME280;47353;51.614;5.530;2023-12-14T08:24:40;101612.38;;;4.91;100.00
59789;BME280;47353;51.614;5.530;2023-12-14T08:27:05;101627.09;;;4.97;100.00
59789;BME280;47353;51.614;5.530;2023-12-14T08:29:30;101621.13;;;5.06;100.00
59789;BME280;47353;51.614;5.530;2023-12-14T08:31:56;101633.47;;;4.91;100.00
59789;BME280;47353;51.614;5.530;2023-12-14T08:34:25;101640.59;;;4.98;100.00
59789;BME280;47353;51.614;5.530;2023-12-14T08:36:51;101644.25;;;4.86;100.00
59789;BME280;47353;51.614;5.530;2023-12-14T08:39:17;101650.53;;;4.99;100.00
59789;BME280;47353;51.614;5.530;2023-12-14T08:41:43;101647.41;;;4.89;100.00
59789;BME280;47353;51.614;5.530;2023-12-14T08:44:10;101652.63;;;4.97;100.00
59789;BME280;47353;51.614;5.530;2023-12-14T08:46:42;101656.66;;;4.95;100.00
59789;BME280;47353;51.614;5.530;2023-12-14T08:49:08;101671.09;;;4.77;100.00
59789;BME280;47353;51.614;5.530;2023-12-14T08:51:34;101674.16;;;4.94;100.00
59789;BME280;47353;51.614;5.530;2023-12-14T08:53:59;101679.88;;;4.92;100.00
59789;BME280;47353;51.614;5.530;2023-12-14T08:56:24;101691.44;;;5.01;100.00
59789;BME280;47353;51.614;5.530;2023-12-14T08:58:50;101688.94;;;4.99;100.00
59789;BME280;47353;51.614;5.530;2023-12-14T09:01:20;101691.78;;;5.11;100.00
59789;BME280;47353;51.614;5.530;2023-12-14T09:03:46;101689.91;;;5.11;100.00
59789;BME280;47353;51.614;5.530;2023-12-14T09:06:11;101676.47;;;4.97;100.00
59789;BME280;47353;51.614;5.530;2023-12-14T09:08:37;101684.09;;;4.95;100.00
59789;BME280;47353;51.614;5.530;2023-12-14T09:11:02;101683.00;;;5.02;100.00
59789;BME280;47353;51.614;5.530;2023-12-14T09:13:29;101691.00;;;5.04;100.00
59789;BME280;47353;51.614;5.530;2023-12-14T09:15:54;101703.88;;;5.03;100.00
59789;BME280;47353;51.614;5.530;2023-12-14T09:18:20;101718.69;;;4.96;100.00
59789;BME280;47353;51.614;5.530;2023-12-14T09:20:48;101717.56;;;5.10;100.00
59789;BME280;47353;51.614;5.530;2023-12-14T09:23:15;101729.53;;;5.15;100.00
59789;BME280;47353;51.614;5.530;2023-12-14T09:25:41;101735.25;;;5.14;100.00
59789;BME280;47353;51.614;5.530;2023-12-14T09:28:06;101738.22;;;5.12;100.00
59789;BME280;47353;51.614;5.530;2023-12-14T09:30:32;101746.25;;;5.07;100.00
59789;BME280;47353;51.614;5.530;2023-12-14T09:32:58;101737.81;;;5.09;100.00
59789;BME280;47353;51.614;5.530;2023-12-14T09:35:23;101750.28;;;5.11;100.00
59789;BME280;47353;51.614;5.530;2023-12-14T09:37:49;101753.38;;;5.22;100.00
59789;BME280;47353;51.614;5.530;2023-12-14T09:40:15;101753.22;;;5.10;100.00
59789;BME280;47353;51.614;5.530;2023-12-14T09:42:42;101765.25;;;5.09;100.00
59789;BME280;47353;51.614;5.530;2023-12-14T09:45:08;101764.19;;;5.17;100.00
59789;BME280;47353;51.614;5.530;2023-12-14T09:47:35;101770.28;;;5.18;100.00
59789;BME280;47353;51.614;5.530;2023-12-14T09:50:00;101774.97;;;5.11;100.00
59789;BME280;47353;51.614;5.530;2023-12-14T09:52:26;101774.53;;;5.14;100.00
59789;BME280;47353;51.614;5.530;2023-12-14T09:54:52;101778.53;;;5.12;100.00
59789;BME280;47353;51.614;5.530;2023-12-14T09:57:20;101787.50;;;5.32;100.00
59789;BME280;47353;51.614;5.530;2023-12-14T09:59:52;101792.19;;;5.25;100.00
59789;BME280;47353;51.614;5.530;2023-12-14T10:02:18;101797.44;;;5.33;100.00
59789;BME280;47353;51.614;5.530;2023-12-14T10:04:44;101798.56;;;5.19;100.00
59789;BME280;47353;51.614;5.530;2023-12-14T10:07:09;101811.00;;;5.22;100.00
59789;BME280;47353;51.614;5.530;2023-12-14T10:09:36;101817.38;;;5.15;100.00
59789;BME280;47353;51.614;5.530;2023-12-14T10:12:04;101822.59;;;5.30;100.00
59789;BME280;47353;51.614;5.530;2023-12-14T10:14:30;101830.44;;;5.20;100.00
59789;BME280;47353;51.614;5.530;2023-12-14T10:16:58;101824.44;;;5.36;100.00
59789;BME280;47353;51.614;5.530;2023-12-14T10:19:23;101822.66;;;5.10;100.00
59789;BME280;47353;51.614;5.530;2023-12-14T10:21:50;101824.91;;;5.33;100.00
59789;BME280;47353;51.614;5.530;2023-12-14T10:24:16;101833.91;;;5.02;100.00
59789;BME280;47353;51.614;5.530;2023-12-14T10:26:44;101831.75;;;5.04;100.00
59789;BME280;47353;51.614;5.530;2023-12-14T10:29:10;101843.34;;;5.13;100.00
59789;BME280;47353;51.614;5.530;2023-12-14T10:31:36;101843.13;;;5.14;100.00
59789;BME280;47353;51.614;5.530;2023-12-14T10:34:05;101843.03;;;5.34;100.00
59789;BME280;47353;51.614;5.530;2023-12-14T10:36:31;101847.56;;;5.15;100.00
59789;BME280;47353;51.614;5.530;2023-12-14T10:39:00;101842.69;;;5.18;100.00
59789;BME280;47353;51.614;5.530;2023-12-14T10:41:26;101838.22;;;5.23;100.00
59789;BME280;47353;51.614;5.530;2023-12-14T10:43:55;101847.75;;;5.21;100.00
59789;BME280;47353;51.614;5.530;2023-12-14T10:46:23;101843.94;;;5.22;100.00
59789;BME280;47353;51.614;5.530;2023-12-14T10:48:50;101837.97;;;5.38;100.00
59789;BME280;47353;51.614;5.530;2023-12-14T10:51:18;101840.03;;;5.42;100.00
59789;BME280;47353;51.614;5.530;2023-12-14T10:53:45;101844.09;;;5.40;100.00
59789;BME280;47353;51.614;5.530;2023-12-14T10:56:15;101851.00;;;5.49;100.00
59789;BME280;47353;51.614;5.530;2023-12-14T10:58:50;101849.50;;;5.53;100.00
59789;BME280;47353;51.614;5.530;2023-12-14T11:01:18;101850.78;;;5.50;100.00
59789;BME280;47353;51.614;5.530;2023-12-14T11:03:44;101855.38;;;5.56;100.00
59789;BME280;47353;51.614;5.530;2023-12-14T11:09:01;101872.13;;;5.42;100.00
59789;BME280;47353;51.614;5.530;2023-12-14T11:11:42;101869.63;;;5.34;100.00
59789;BME280;47353;51.614;5.530;2023-12-14T11:14:12;101873.00;;;5.42;100.00
59789;BME280;47353;51.614;5.530;2023-12-14T11:16:38;101865.19;;;5.39;100.00
59789;BME280;47353;51.614;5.530;2023-12-14T11:24:18;101884.56;;;5.51;100.00
59789;BME280;47353;51.614;5.530;2023-12-14T11:26:43;101883.06;;;5.55;100.00
59789;BME280;47353;51.614;5.530;2023-12-14T11:29:09;101880.00;;;5.76;100.00
59789;BME280;47353;51.614;5.530;2023-12-14T11:31:34;101887.44;;;5.69;100.00
59789;BME280;47353;51.614;5.530;2023-12-14T11:34:00;101895.22;;;5.78;100.00
59789;BME280;47353;51.614;5.530;2023-12-14T11:36:28;101908.63;;;5.99;100.00
59789;BME280;47353;51.614;5.530;2023-12-14T11:38:54;101907.69;;;5.74;100.00
59789;BME280;47353;51.614;5.530;2023-12-14T11:41:21;101912.28;;;5.80;100.00
59789;BME280;47353;51.614;5.530;2023-12-14T11:43:47;101913.09;;;5.94;100.00
59789;BME280;47353;51.614;5.530;2023-12-14T11:46:14;101910.31;;;6.00;100.00
59789;BME280;47353;51.614;5.530;2023-12-14T11:48:44;101912.25;;;5.93;100.00
59789;BME280;47353;51.614;5.530;2023-12-14T11:51:09;101915.56;;;6.02;100.00
59789;BME280;47353;51.614;5.530;2023-12-14T11:53:36;101909.91;;;6.28;100.00
59789;BME280;47353;51.614;5.530;2023-12-14T11:56:04;101908.84;;;6.29;100.00
59789;BME280;47353;51.614;5.530;2023-12-14T11:58:31;101904.53;;;6.39;100.00
59789;BME280;47353;51.614;5.530;2023-12-14T12:01:16;101904.97;;;6.61;100.00
59789;BME280;47353;51.614;5.530;2023-12-14T12:03:43;101914.78;;;7.00;100.00
59789;BME280;47353;51.614;5.530;2023-12-14T12:06:22;101915.22;;;7.15;100.00
59789;BME280;47353;51.614;5.530;2023-12-14T12:08:48;101911.97;;;7.24;100.00
59789;BME280;47353;51.614;5.530;2023-12-14T12:11:23;101918.53;;;7.23;99.61
59789;BME280;47353;51.614;5.530;2023-12-14T12:13:55;101913.53;;;7.50;100.00
59789;BME280;47353;51.614;5.530;2023-12-14T12:16:21;101914.59;;;7.67;96.40
59789;BME280;47353;51.614;5.530;2023-12-14T12:18:47;101912.41;;;8.58;97.33
59789;BME280;47353;51.614;5.530;2023-12-14T12:21:12;101917.91;;;8.05;92.90
59789;BME280;47353;51.614;5.530;2023-12-14T12:23:38;101909.19;;;7.60;90.47
59789;BME280;47353;51.614;5.530;2023-12-14T12:26:04;101910.25;;;7.59;93.05
59789;BME280;47353;51.614;5.530;2023-12-14T12:28:30;101916.19;;;7.92;97.23
59789;BME280;47353;51.614;5.530;2023-12-14T12:30:56;101926.63;;;7.36;96.87
59789;BME280;47353;51.614;5.530;2023-12-14T12:33:21;101929.84;;;7.15;97.69
59789;BME280;47353;51.614;5.530;2023-12-14T12:35:47;101932.53;;;6.79;95.55
59789;BME280;47353;51.614;5.530;2023-12-14T12:38:12;101936.69;;;6.63;97.28
59789;BME280;47353;51.614;5.530;2023-12-14T12:40:37;101937.09;;;6.42;96.65
59789;BME280;47353;51.614;5.530;2023-12-14T12:43:03;101940.84;;;6.48;98.60
59789;BME280;47353;51.614;5.530;2023-12-14T12:45:29;101944.03;;;6.45;98.71
59789;BME280;47353;51.614;5.530;2023-12-14T12:47:55;101944.38;;;6.30;99.17
59789;BME280;47353;51.614;5.530;2023-12-14T12:50:20;101951.50;;;6.38;99.54
59789;BME280;47353;51.614;5.530;2023-12-14T12:52:46;101947.28;;;6.35;99.37